createdAt,value
2018-12-31T00:01:17.213Z,7.63
2018-12-31T00:03:47.719Z,8.08
2018-12-31T00:06:17.695Z,7.57
2018-12-31T00:08:47.456Z,8.00
2018-12-31T00:11:17.300Z,8.93
2018-12-31T00:13:47.207Z,7.90
2018-12-31T00:16:17.179Z,9.03
2018-12-31T00:18:47.058Z,9.57
2018-12-31T00:21:18.018Z,8.83
2018-12-31T00:23:47.858Z,10.23
2018-12-31T00:26:18.064Z,9.50
2018-12-31T00:28:48.043Z,10.53
2018-12-31T00:31:17.896Z,9.73
2018-12-31T00:33:47.800Z,9.43
2018-12-31T00:36:17.764Z,10.63
2018-12-31T00:38:48.693Z,11.40
2018-12-31T00:41:18.562Z,11.47
2018-12-31T00:43:48.404Z,12.70
2018-12-31T00:46:19.372Z,12.33
2018-12-31T00:48:49.323Z,12.40
2018-12-31T00:51:19.097Z,11.17
2018-12-31T00:53:48.882Z,12.88
2018-12-31T00:56:19.751Z,13.17
2018-12-31T00:58:49.699Z,11.90
2018-12-31T01:01:19.553Z,11.50
2018-12-31T01:03:50.576Z,11.57
2018-12-31T01:06:20.580Z,11.93
2018-12-31T01:08:50.368Z,11.83
2018-12-31T01:11:20.469Z,11.63
2018-12-31T01:13:50.220Z,12.10
2018-12-31T01:16:20.083Z,12.90
2018-12-31T01:18:49.850Z,11.80
2018-12-31T01:21:21.645Z,12.73
2018-12-31T01:23:51.456Z,13.47
2018-12-31T01:26:21.293Z,13.08
2018-12-31T01:28:51.040Z,13.30
2018-12-31T01:31:20.989Z,13.47
2018-12-31T01:33:52.570Z,13.40
2018-12-31T01:36:22.508Z,14.45
2018-12-31T01:38:52.307Z,12.90
2018-12-31T01:41:22.018Z,12.93
2018-12-31T01:43:51.762Z,13.17
2018-12-31T01:46:21.643Z,12.97
2018-12-31T01:48:51.469Z,14.00
2018-12-31T01:51:21.396Z,13.13
2018-12-31T01:53:51.124Z,13.03
2018-12-31T01:56:20.933Z,13.27
2018-12-31T01:58:50.699Z,12.93
2018-12-31T02:01:20.404Z,14.00
2018-12-31T02:03:50.336Z,13.13
2018-12-31T02:06:20.001Z,12.63
2018-12-31T02:08:49.953Z,12.15
2018-12-31T02:11:19.717Z,11.73
2018-12-31T02:13:49.817Z,13.43
2018-12-31T02:16:20.739Z,13.07
2018-12-31T02:18:51.492Z,13.60
2018-12-31T02:21:21.206Z,14.60
2018-12-31T02:23:51.046Z,13.73
2018-12-31T02:26:20.751Z,13.60
2018-12-31T02:28:50.498Z,14.60
2018-12-31T02:31:20.274Z,14.53
2018-12-31T02:33:50.136Z,17.40
2018-12-31T02:36:19.864Z,15.33
2018-12-31T02:38:49.849Z,18.17
2018-12-31T02:41:19.681Z,17.67
2018-12-31T02:43:49.433Z,16.27
2018-12-31T02:46:19.661Z,17.10
2018-12-31T02:48:49.464Z,16.03
2018-12-31T02:51:19.267Z,18.60
2018-12-31T02:53:49.090Z,17.00
2018-12-31T02:56:18.878Z,15.67
2018-12-31T02:58:48.756Z,16.10
2018-12-31T03:01:19.634Z,15.57
2018-12-31T03:03:49.470Z,15.60
2018-12-31T03:06:19.323Z,15.80
2018-12-31T03:08:49.245Z,15.83
2018-12-31T03:11:19.100Z,15.37
2018-12-31T03:13:48.925Z,14.13
2018-12-31T03:16:18.851Z,15.07
2018-12-31T03:18:48.741Z,14.90
2018-12-31T03:21:18.696Z,15.40
2018-12-31T03:23:48.403Z,15.17
2018-12-31T03:26:18.268Z,15.17
2018-12-31T03:28:49.211Z,15.37
2018-12-31T03:31:20.065Z,15.27
2018-12-31T03:33:49.830Z,16.40
2018-12-31T03:36:19.723Z,15.77
2018-12-31T03:38:49.593Z,15.30
2018-12-31T03:41:19.418Z,14.90
2018-12-31T03:43:49.167Z,14.93
2018-12-31T03:46:19.096Z,14.17
2018-12-31T03:48:50.108Z,14.73
2018-12-31T03:51:20.074Z,13.00
2018-12-31T03:53:49.969Z,14.27
2018-12-31T03:56:19.883Z,14.07
2018-12-31T03:58:49.641Z,11.97
2018-12-31T04:01:19.652Z,12.43
2018-12-31T04:03:49.769Z,12.57
2018-12-31T04:06:19.521Z,12.13
2018-12-31T04:08:49.292Z,13.05
2018-12-31T04:11:19.038Z,12.77
2018-12-31T04:13:48.800Z,13.38
2018-12-31T04:16:18.671Z,14.80
2018-12-31T04:18:48.404Z,13.77
2018-12-31T04:21:18.342Z,14.23
2018-12-31T04:23:48.714Z,13.73
2018-12-31T04:26:18.558Z,14.30
2018-12-31T04:28:48.367Z,15.40
2018-12-31T04:31:18.198Z,14.60
2018-12-31T04:33:48.645Z,16.50
2018-12-31T04:36:18.350Z,16.80
2018-12-31T04:38:48.265Z,17.10
2018-12-31T04:41:18.065Z,17.20
2018-12-31T04:43:47.828Z,17.47
2018-12-31T04:46:17.716Z,17.50
2018-12-31T04:48:47.459Z,17.87
2018-12-31T04:51:17.245Z,18.10
2018-12-31T04:53:47.024Z,17.77
2018-12-31T04:56:17.731Z,17.70
2018-12-31T04:58:47.593Z,18.20
2018-12-31T05:01:17.389Z,19.03
2018-12-31T05:03:47.145Z,17.93
2018-12-31T05:06:16.968Z,19.20
2018-12-31T05:08:47.839Z,18.90
2018-12-31T05:11:17.617Z,17.67
2018-12-31T05:13:47.435Z,18.67
2018-12-31T05:16:17.387Z,19.03
2018-12-31T05:18:47.219Z,18.83
2018-12-31T05:21:16.951Z,19.70
2018-12-31T05:23:46.783Z,19.37
2018-12-31T05:26:16.791Z,20.63
2018-12-31T05:28:46.619Z,20.33
2018-12-31T05:31:16.375Z,19.10
2018-12-31T05:33:46.124Z,20.73
2018-12-31T05:36:16.032Z,21.63
2018-12-31T05:38:45.843Z,20.10
2018-12-31T05:41:15.545Z,22.20
2018-12-31T05:43:45.323Z,21.20
2018-12-31T05:46:16.155Z,21.77
2018-12-31T05:48:49.312Z,20.27
2018-12-31T05:51:19.073Z,23.25
2018-12-31T05:53:48.817Z,23.80
2018-12-31T05:56:18.696Z,22.60
2018-12-31T05:58:48.507Z,23.83
2018-12-31T06:01:18.333Z,24.07
2018-12-31T06:03:48.181Z,22.80
2018-12-31T06:06:18.052Z,24.87
2018-12-31T06:08:47.989Z,22.77
2018-12-31T06:11:17.794Z,22.30
2018-12-31T06:13:47.598Z,23.33
2018-12-31T06:16:17.352Z,24.67
2018-12-31T06:18:47.213Z,23.40
2018-12-31T06:21:17.022Z,22.37
2018-12-31T06:23:46.732Z,24.93
2018-12-31T06:26:17.457Z,24.83
2018-12-31T06:28:47.897Z,25.13
2018-12-31T06:31:17.621Z,23.80
2018-12-31T06:33:47.377Z,24.60
2018-12-31T06:36:17.323Z,24.07
2018-12-31T06:38:47.071Z,22.90
2018-12-31T06:41:17.081Z,24.23
2018-12-31T06:43:46.786Z,24.07
2018-12-31T06:46:16.739Z,23.83
2018-12-31T06:48:46.469Z,24.17
2018-12-31T06:51:16.242Z,24.75
2018-12-31T06:53:46.057Z,25.20
2018-12-31T06:56:15.779Z,25.90
2018-12-31T06:58:45.492Z,25.77
2018-12-31T07:01:15.713Z,25.17
2018-12-31T07:03:45.843Z,23.57
2018-12-31T07:06:15.617Z,25.82
2018-12-31T07:08:45.365Z,25.00
2018-12-31T07:11:15.350Z,24.87
2018-12-31T07:13:45.123Z,24.23
2018-12-31T07:16:14.942Z,22.83
2018-12-31T07:18:44.676Z,22.02
2018-12-31T07:21:14.487Z,21.53
2018-12-31T07:23:44.209Z,22.83
2018-12-31T07:26:14.071Z,22.53
2018-12-31T07:28:43.902Z,21.60
2018-12-31T07:31:13.653Z,21.87
2018-12-31T07:33:43.687Z,22.27
2018-12-31T07:36:13.575Z,22.03
2018-12-31T07:38:43.652Z,22.10
2018-12-31T07:41:13.465Z,21.07
2018-12-31T07:43:43.446Z,20.50
2018-12-31T07:46:13.494Z,20.50
2018-12-31T07:48:43.402Z,20.47
2018-12-31T07:51:13.313Z,20.60
2018-12-31T07:53:43.092Z,20.33
2018-12-31T07:56:13.139Z,20.90
2018-12-31T07:58:42.983Z,22.63
2018-12-31T08:01:12.866Z,20.48
2018-12-31T08:03:42.669Z,20.73
2018-12-31T08:06:12.635Z,20.90
2018-12-31T08:08:42.333Z,19.83
2018-12-31T08:11:13.038Z,19.97
2018-12-31T08:13:42.781Z,20.40
2018-12-31T08:16:12.533Z,19.87
2018-12-31T08:18:42.415Z,20.37
2018-12-31T08:21:12.251Z,19.17
2018-12-31T08:23:42.093Z,19.27
2018-12-31T08:26:12.195Z,19.07
2018-12-31T08:28:41.945Z,19.27
2018-12-31T08:31:11.897Z,18.30
2018-12-31T08:33:41.608Z,17.60
2018-12-31T08:36:11.397Z,17.93
2018-12-31T08:38:41.296Z,17.60
2018-12-31T08:41:11.445Z,17.93
2018-12-31T08:43:41.219Z,16.50
2018-12-31T08:46:11.075Z,17.13
2018-12-31T08:48:41.191Z,17.93
2018-12-31T08:51:11.025Z,17.43
2018-12-31T08:53:41.020Z,17.43
2018-12-31T08:56:10.765Z,15.83
2018-12-31T08:58:40.564Z,16.17
2018-12-31T09:01:10.415Z,16.00
2018-12-31T09:03:40.167Z,16.30
2018-12-31T09:06:10.060Z,14.90
2018-12-31T09:08:40.146Z,15.63
2018-12-31T09:11:10.833Z,15.70
2018-12-31T09:13:40.653Z,14.37
2018-12-31T09:16:11.468Z,15.80
2018-12-31T09:18:41.285Z,16.33
2018-12-31T09:21:11.305Z,15.73
2018-12-31T09:23:41.126Z,16.40
2018-12-31T09:26:10.917Z,16.33
2018-12-31T09:28:40.831Z,16.05
2018-12-31T09:31:10.686Z,15.93
2018-12-31T09:33:40.767Z,17.07
2018-12-31T09:36:10.649Z,17.00
2018-12-31T09:38:40.505Z,16.50
2018-12-31T09:41:10.492Z,15.67
2018-12-31T09:43:41.841Z,17.13
2018-12-31T09:46:11.790Z,17.27
2018-12-31T09:48:41.658Z,17.33
2018-12-31T09:51:11.386Z,16.77
2018-12-31T09:53:41.202Z,17.20
2018-12-31T09:56:10.961Z,16.57
2018-12-31T09:58:40.761Z,17.07
2018-12-31T10:01:10.580Z,17.67
2018-12-31T10:03:40.380Z,19.37
2018-12-31T10:06:10.220Z,16.77
2018-12-31T10:08:40.141Z,17.60
2018-12-31T10:11:09.928Z,17.40
2018-12-31T10:13:39.657Z,17.37
2018-12-31T10:16:10.035Z,17.67
2018-12-31T10:18:39.989Z,17.87
2018-12-31T10:21:09.837Z,16.33
2018-12-31T10:23:39.844Z,15.07
2018-12-31T10:26:10.294Z,15.97
2018-12-31T10:28:40.291Z,15.32
2018-12-31T10:31:10.131Z,15.03
2018-12-31T10:33:39.917Z,15.25
2018-12-31T10:36:09.937Z,17.03
2018-12-31T10:38:39.787Z,15.90
2018-12-31T10:41:09.620Z,15.70
2018-12-31T10:43:39.462Z,16.37
2018-12-31T10:46:09.492Z,14.27
2018-12-31T10:48:39.328Z,16.50
2018-12-31T10:51:09.214Z,15.97
2018-12-31T10:53:39.134Z,16.37
2018-12-31T10:56:09.232Z,15.17
2018-12-31T10:58:40.088Z,14.87
2018-12-31T11:01:12.608Z,14.40
2018-12-31T11:03:42.509Z,14.97
2018-12-31T11:06:12.420Z,13.97
2018-12-31T11:08:42.852Z,14.57
2018-12-31T11:11:12.741Z,14.03
2018-12-31T11:13:42.602Z,14.67
2018-12-31T11:16:12.519Z,14.53
2018-12-31T11:18:42.277Z,15.27
2018-12-31T11:21:12.304Z,14.63
2018-12-31T11:23:42.110Z,15.03
2018-12-31T11:26:12.273Z,14.90
2018-12-31T11:28:44.236Z,14.23
2018-12-31T11:31:14.152Z,14.73
2018-12-31T11:33:43.973Z,14.93
2018-12-31T11:36:13.803Z,15.93
2018-12-31T11:38:43.839Z,14.73
2018-12-31T11:41:13.777Z,15.50
2018-12-31T11:43:43.778Z,16.00
2018-12-31T11:46:13.779Z,15.47
2018-12-31T11:48:43.795Z,16.42
2018-12-31T11:51:13.862Z,14.90
2018-12-31T11:53:43.790Z,16.07
2018-12-31T11:56:13.581Z,15.87
2018-12-31T11:58:44.448Z,15.72
2018-12-31T12:01:16.341Z,16.37
2018-12-31T12:03:46.267Z,15.90
2018-12-31T12:06:16.318Z,16.93
2018-12-31T12:08:46.200Z,17.13
2018-12-31T12:11:17.236Z,15.17
2018-12-31T12:13:47.093Z,15.93
2018-12-31T12:16:16.925Z,15.10
2018-12-31T12:18:46.749Z,15.30
2018-12-31T12:21:16.787Z,15.50
2018-12-31T12:23:46.937Z,14.53
2018-12-31T12:26:16.844Z,14.68
2018-12-31T12:28:46.740Z,14.70
2018-12-31T12:31:16.742Z,14.38
2018-12-31T12:33:46.743Z,14.57
2018-12-31T12:36:17.155Z,14.33
2018-12-31T12:38:47.034Z,14.03
2018-12-31T12:41:17.686Z,15.40
2018-12-31T12:43:47.574Z,15.40
2018-12-31T12:46:17.401Z,15.50
2018-12-31T12:48:47.297Z,15.67
2018-12-31T12:51:17.105Z,15.13
2018-12-31T12:53:47.224Z,14.55
2018-12-31T12:56:17.143Z,15.27
2018-12-31T12:58:47.108Z,16.43
2018-12-31T13:01:17.619Z,14.73
2018-12-31T13:03:47.898Z,16.45
2018-12-31T13:06:22.431Z,15.30
2018-12-31T13:08:52.259Z,16.07
2018-12-31T13:11:22.094Z,14.40
2018-12-31T13:13:52.453Z,15.78
2018-12-31T13:16:22.423Z,14.93
2018-12-31T13:18:52.869Z,15.10
2018-12-31T13:21:23.080Z,14.87
2018-12-31T13:23:52.908Z,16.23
2018-12-31T13:26:22.764Z,17.70
2018-12-31T13:28:53.442Z,16.87
2018-12-31T13:31:23.511Z,16.73
2018-12-31T13:33:53.400Z,16.70
2018-12-31T13:36:25.112Z,16.33
2018-12-31T13:38:55.017Z,16.20
2018-12-31T13:41:24.969Z,15.38
2018-12-31T13:43:54.984Z,15.97
2018-12-31T13:46:25.005Z,15.83
2018-12-31T13:48:54.827Z,17.77
2018-12-31T13:51:25.188Z,18.80
2018-12-31T13:53:55.477Z,17.80
2018-12-31T13:56:25.543Z,19.33
2018-12-31T13:58:55.409Z,19.93
2018-12-31T14:01:25.361Z,18.40
2018-12-31T14:03:55.200Z,18.47
2018-12-31T14:06:25.050Z,20.90
2018-12-31T14:08:54.908Z,20.97
2018-12-31T14:11:24.736Z,22.90
2018-12-31T14:13:54.659Z,22.45
2018-12-31T14:16:24.938Z,25.10
2018-12-31T14:18:54.713Z,23.90
2018-12-31T14:21:24.575Z,24.60
2018-12-31T14:23:55.848Z,23.93
2018-12-31T14:26:25.720Z,23.77
2018-12-31T14:28:55.557Z,25.30
2018-12-31T14:31:25.461Z,24.27
2018-12-31T14:33:55.375Z,25.03
2018-12-31T14:36:25.295Z,24.33
2018-12-31T14:38:55.187Z,26.17
2018-12-31T14:41:25.135Z,23.93
2018-12-31T14:43:55.127Z,22.90
2018-12-31T14:46:25.209Z,23.77
2018-12-31T14:48:55.219Z,23.47
2018-12-31T14:51:25.603Z,24.17
2018-12-31T14:53:55.468Z,24.53
2018-12-31T14:56:25.403Z,24.50
2018-12-31T14:58:55.593Z,22.53
2018-12-31T15:01:25.930Z,25.00
2018-12-31T15:03:56.039Z,23.80
2018-12-31T15:06:27.054Z,22.43
2018-12-31T15:08:57.028Z,22.52
2018-12-31T15:11:26.866Z,22.97
2018-12-31T15:13:56.759Z,23.73
2018-12-31T15:16:26.828Z,23.13
2018-12-31T15:18:56.969Z,23.73
2018-12-31T15:21:27.006Z,22.90
2018-12-31T15:23:56.947Z,22.87
2018-12-31T15:26:26.993Z,20.17
2018-12-31T15:28:56.804Z,21.07
2018-12-31T15:31:26.718Z,20.67
2018-12-31T15:33:56.764Z,20.73
2018-12-31T15:36:26.603Z,19.80
2018-12-31T15:38:56.447Z,19.40
2018-12-31T15:41:26.410Z,20.33
2018-12-31T15:43:56.363Z,20.97
2018-12-31T15:46:26.144Z,19.17
2018-12-31T15:48:56.151Z,19.17
2018-12-31T15:51:26.089Z,19.03
2018-12-31T15:53:56.928Z,18.17
2018-12-31T15:56:27.553Z,19.70
2018-12-31T15:58:57.550Z,20.23
2018-12-31T16:01:27.949Z,21.20
2018-12-31T16:03:58.755Z,20.27
2018-12-31T16:06:29.665Z,19.47
2018-12-31T16:08:59.544Z,20.20
2018-12-31T16:11:29.450Z,21.37
2018-12-31T16:13:59.265Z,21.33
2018-12-31T16:16:29.117Z,21.07
2018-12-31T16:18:59.308Z,19.73
2018-12-31T16:21:29.367Z,20.40
2018-12-31T16:24:02.790Z,20.73
2018-12-31T16:26:32.639Z,22.87
2018-12-31T16:29:02.562Z,21.43
2018-12-31T16:31:32.399Z,21.00
2018-12-31T16:34:02.145Z,20.95
2018-12-31T16:36:31.986Z,22.90
2018-12-31T16:39:01.933Z,22.35
2018-12-31T16:41:33.545Z,22.60
2018-12-31T16:44:03.708Z,22.87
2018-12-31T16:46:34.035Z,23.50
2018-12-31T16:49:04.529Z,24.77
2018-12-31T16:51:34.423Z,24.87
2018-12-31T16:54:11.843Z,23.07
2018-12-31T16:56:42.538Z,23.20
2018-12-31T16:59:13.430Z,24.15
2018-12-31T17:01:43.603Z,24.03
2018-12-31T17:04:13.824Z,22.17
2018-12-31T17:06:43.635Z,22.43
2018-12-31T17:09:13.693Z,23.80
2018-12-31T17:11:43.672Z,23.00
2018-12-31T17:14:13.441Z,33.40
2018-12-31T17:16:43.255Z,23.83
2018-12-31T17:19:13.033Z,22.23
2018-12-31T17:21:43.236Z,23.98
2018-12-31T17:24:13.037Z,22.60
2018-12-31T17:26:42.748Z,23.77
2018-12-31T17:29:12.735Z,26.27
2018-12-31T17:31:42.669Z,25.20
2018-12-31T17:34:12.832Z,26.10
2018-12-31T17:36:42.802Z,28.80
2018-12-31T17:39:12.587Z,30.97
2018-12-31T17:41:42.981Z,29.30
2018-12-31T17:44:12.983Z,29.23
2018-12-31T17:46:47.098Z,28.63
2018-12-31T17:49:23.786Z,30.57
2018-12-31T17:52:02.250Z,29.00
2018-12-31T17:54:32.387Z,29.87
2018-12-31T17:57:02.683Z,29.27
2018-12-31T17:59:35.695Z,28.57
2018-12-31T18:02:05.898Z,28.63
2018-12-31T18:04:36.860Z,30.07
2018-12-31T18:07:06.725Z,30.43
2018-12-31T18:09:36.803Z,30.90
2018-12-31T18:12:06.575Z,29.93
2018-12-31T18:14:36.443Z,30.57
2018-12-31T18:17:06.423Z,30.07
2018-12-31T18:19:36.510Z,32.77
2018-12-31T18:22:06.434Z,33.40
2018-12-31T18:24:36.748Z,31.20
2018-12-31T18:27:06.929Z,32.70
2018-12-31T18:29:37.046Z,32.17
2018-12-31T18:32:06.889Z,32.63
2018-12-31T18:34:37.723Z,30.50
2018-12-31T18:37:07.473Z,31.33
2018-12-31T18:39:38.003Z,32.78
2018-12-31T18:42:08.014Z,33.10
2018-12-31T18:44:37.885Z,33.67
2018-12-31T18:47:07.726Z,36.40
2018-12-31T18:49:37.603Z,33.57
2018-12-31T18:52:07.825Z,30.67
2018-12-31T18:54:37.796Z,33.57
2018-12-31T18:57:07.605Z,31.57
2018-12-31T18:59:37.548Z,32.57
2018-12-31T19:02:07.499Z,30.83
2018-12-31T19:04:37.966Z,30.37
2018-12-31T19:07:07.826Z,31.55
2018-12-31T19:09:37.766Z,29.00
2018-12-31T19:12:08.965Z,28.20
2018-12-31T19:14:38.787Z,29.80
2018-12-31T19:17:09.572Z,27.23
2018-12-31T19:19:39.352Z,27.67
2018-12-31T19:22:09.718Z,27.37
2018-12-31T19:24:39.743Z,24.07
2018-12-31T19:27:09.506Z,27.83
2018-12-31T19:29:39.345Z,27.98
2018-12-31T19:32:09.213Z,27.03
2018-12-31T19:34:39.082Z,26.68
2018-12-31T19:37:08.955Z,24.87
2018-12-31T19:39:38.909Z,23.22
2018-12-31T19:42:09.056Z,22.93
2018-12-31T19:44:39.858Z,21.43
2018-12-31T19:47:09.963Z,19.35
2018-12-31T19:49:39.746Z,19.13
2018-12-31T19:52:22.568Z,20.00
2018-12-31T19:54:52.666Z,18.97
2018-12-31T19:57:22.590Z,20.33
2018-12-31T19:59:52.997Z,19.07
2018-12-31T20:02:23.396Z,19.07
2018-12-31T20:04:53.316Z,19.77
2018-12-31T20:07:23.114Z,18.13
2018-12-31T20:09:53.114Z,26.37
2018-12-31T20:12:23.493Z,17.97
2018-12-31T20:14:53.330Z,19.53
2018-12-31T20:17:23.351Z,16.77
2018-12-31T20:19:53.269Z,16.23
2018-12-31T20:22:23.124Z,16.95
2018-12-31T20:24:52.971Z,17.07
2018-12-31T20:27:23.296Z,17.13
2018-12-31T20:29:53.241Z,16.10
2018-12-31T20:32:24.122Z,16.50
2018-12-31T20:34:54.376Z,18.57
2018-12-31T20:37:24.411Z,22.47
2018-12-31T20:39:54.353Z,21.20
2018-12-31T20:42:24.394Z,19.60
2018-12-31T20:44:54.178Z,16.83
2018-12-31T20:47:24.097Z,17.10
2018-12-31T20:49:53.953Z,18.82
2018-12-31T20:52:25.260Z,17.60
2018-12-31T20:54:55.023Z,19.23
2018-12-31T20:57:24.956Z,18.57
2018-12-31T20:59:55.129Z,20.20
2018-12-31T21:02:25.196Z,19.83
2018-12-31T21:04:55.256Z,21.00
2018-12-31T21:07:26.209Z,20.70
2018-12-31T21:09:56.258Z,22.40
2018-12-31T21:12:26.714Z,22.27
2018-12-31T21:15:00.426Z,22.63
2018-12-31T21:17:31.317Z,22.60
2018-12-31T21:20:03.399Z,22.53
2018-12-31T21:22:33.304Z,23.30
2018-12-31T21:25:04.577Z,22.47
2018-12-31T21:27:34.613Z,27.27
2018-12-31T21:30:05.625Z,36.40
2018-12-31T21:32:35.465Z,24.90
2018-12-31T21:35:05.829Z,24.33
2018-12-31T21:37:35.864Z,26.37
2018-12-31T21:40:07.733Z,26.23
2018-12-31T21:42:37.748Z,25.17
2018-12-31T21:45:07.684Z,25.27
2018-12-31T21:47:38.118Z,23.90
2018-12-31T21:50:09.395Z,24.53
2018-12-31T21:52:39.424Z,23.73
2018-12-31T21:55:09.461Z,24.37
2018-12-31T21:57:39.631Z,24.73
2018-12-31T22:00:09.887Z,24.43
2018-12-31T22:02:40.148Z,23.30
2018-12-31T22:05:11.188Z,23.57
2018-12-31T22:07:41.365Z,22.93
2018-12-31T22:10:11.341Z,24.90
2018-12-31T22:12:41.515Z,23.27
2018-12-31T22:15:11.655Z,23.57
2018-12-31T22:17:41.937Z,22.90
2018-12-31T22:20:12.018Z,23.00
2018-12-31T22:22:42.981Z,21.87
2018-12-31T22:25:13.039Z,21.53
2018-12-31T22:27:43.062Z,22.90
2018-12-31T22:30:13.265Z,21.97
2018-12-31T22:32:42.992Z,23.37
2018-12-31T22:35:13.804Z,25.00
2018-12-31T22:37:43.857Z,24.90
2018-12-31T22:40:13.848Z,25.63
2018-12-31T22:42:43.624Z,26.20
2018-12-31T22:45:13.634Z,24.37
2018-12-31T22:47:43.814Z,24.23
2018-12-31T22:50:14.098Z,24.70
2018-12-31T22:52:44.082Z,27.70
2018-12-31T22:55:14.077Z,26.97
2018-12-31T22:57:44.171Z,28.40
2018-12-31T23:00:14.434Z,30.13
2018-12-31T23:02:44.193Z,44.70
2018-12-31T23:05:18.016Z,70.40
2018-12-31T23:07:48.584Z,160.55
2018-12-31T23:10:18.557Z,194.47
2018-12-31T23:12:49.690Z,243.67
2018-12-31T23:15:23.041Z,541.10
2018-12-31T23:17:54.186Z,592.57
2018-12-31T23:20:24.690Z,311.57
2018-12-31T23:22:54.748Z,372.30
2018-12-31T23:25:25.018Z,332.10
2018-12-31T23:27:57.193Z,309.53
2018-12-31T23:30:27.067Z,124.33
2018-12-31T23:32:57.186Z,108.13
2018-12-31T23:35:27.638Z,86.80
2018-12-31T23:37:57.557Z,83.77
2018-12-31T23:40:27.546Z,109.10
2018-12-31T23:43:06.151Z,89.47
2018-12-31T23:45:31.082Z,87.23
2018-12-31T23:48:01.249Z,81.10
2018-12-31T23:50:31.237Z,82.33
2018-12-31T23:53:01.284Z,83.83
2018-12-31T23:55:31.346Z,76.95
2018-12-31T23:58:01.325Z,68.73
